Loughrea, Ireland
Current Conditions -  °F | °C
As of 9:00 AM on Sunday 23 Nov 2014 (Local Time) from EINN Reporting Station
Haze Haze  
Wind Chill:   Ceiling: Unl
Heat Index:   Visibility: 3mi
Dew Point:   Wind: 2mph
Humidity: 100%   Direction: 80°E
Pressure: 30.15"   Gusts: NA
Location:  53.2°N, 8.57°W
Report Text: EINN 230900Z 08002KT 5000 BR FEW020 02/02 Q1021 BECMG 9999
Loading
Personal Weather Stations






























Interactive Weather Map New forecast layout! Learn more

10-Day Weather Forecast

Advertisements
Track Severe Weather on mobile